createdAt,value
2023-03-19T00:01:53.268Z,8.11
2023-03-19T00:04:41.788Z,8.13
2023-03-19T00:07:32.221Z,8.12
2023-03-19T00:10:20.574Z,8.13
2023-03-19T00:13:10.270Z,8.12
2023-03-19T00:16:00.110Z,8.11
2023-03-19T00:18:49.299Z,8.11
2023-03-19T00:21:37.877Z,8.03
2023-03-19T00:24:26.689Z,7.97
2023-03-19T00:27:15.092Z,7.98
2023-03-19T00:30:04.876Z,8.05
2023-03-19T00:32:55.125Z,8.10
2023-03-19T00:35:43.659Z,8.13
2023-03-19T00:38:32.062Z,8.13
2023-03-19T00:41:20.829Z,8.14
2023-03-19T00:44:09.212Z,7.96
2023-03-19T00:46:57.634Z,7.87
2023-03-19T00:49:47.398Z,7.92
2023-03-19T00:52:35.865Z,7.86
2023-03-19T00:55:25.669Z,7.89
2023-03-19T00:58:14.376Z,7.90
2023-03-19T01:01:03.606Z,7.47
2023-03-19T01:03:52.072Z,7.15
2023-03-19T01:06:41.907Z,6.97
2023-03-19T01:09:30.400Z,7.15
2023-03-19T01:12:19.488Z,7.23
2023-03-19T01:15:09.129Z,7.30
2023-03-19T01:17:57.523Z,7.35
2023-03-19T01:20:45.907Z,7.37
2023-03-19T01:23:36.179Z,7.35
2023-03-19T01:26:24.555Z,7.36
2023-03-19T01:29:17.152Z,7.41
2023-03-19T01:32:06.114Z,7.46
2023-03-19T01:35:20.981Z,7.07
2023-03-19T01:38:11.128Z,6.92
2023-03-19T01:41:01.640Z,6.99
2023-03-19T01:43:51.270Z,7.05
2023-03-19T01:46:59.096Z,7.12
2023-03-19T01:49:57.640Z,7.06
2023-03-19T01:52:46.184Z,7.09
2023-03-19T01:56:13.384Z,7.10
2023-03-19T01:59:37.175Z,7.09
2023-03-19T02:02:33.247Z,7.12
2023-03-19T02:05:29.184Z,7.10
2023-03-19T02:08:24.887Z,7.05
2023-03-19T02:11:15.850Z,6.88
2023-03-19T02:14:04.477Z,6.87
2023-03-19T02:16:53.104Z,6.87
2023-03-19T02:19:48.415Z,6.85
2023-03-19T02:22:37.934Z,6.80
2023-03-19T02:25:29.650Z,6.73
2023-03-19T02:28:20.643Z,6.79
2023-03-19T02:31:11.000Z,6.43
2023-03-19T02:34:04.154Z,5.90
2023-03-19T02:36:54.911Z,5.73
2023-03-19T02:39:50.844Z,5.62
2023-03-19T02:42:39.259Z,5.65
2023-03-19T02:45:30.666Z,5.52
2023-03-19T02:48:19.059Z,5.43
2023-03-19T02:51:08.670Z,5.18
2023-03-19T02:53:57.121Z,4.82
2023-03-19T02:56:46.226Z,5.09
2023-03-19T02:59:34.782Z,5.24
2023-03-19T03:02:24.694Z,5.44
2023-03-19T03:05:13.558Z,5.61
2023-03-19T03:08:03.241Z,5.80
2023-03-19T03:10:51.702Z,5.90
2023-03-19T03:13:40.244Z,5.94
2023-03-19T03:16:28.821Z,5.95
2023-03-19T03:19:19.405Z,6.01
2023-03-19T03:22:09.155Z,6.06
2023-03-19T03:24:57.613Z,6.10
2023-03-19T03:27:46.254Z,6.11
2023-03-19T03:30:34.996Z,6.18
2023-03-19T03:33:23.555Z,6.18
2023-03-19T03:36:14.128Z,6.19
2023-03-19T03:39:02.514Z,6.19
2023-03-19T03:41:51.646Z,6.18
2023-03-19T03:44:40.674Z,6.26
2023-03-19T03:47:29.172Z,6.31
2023-03-19T03:50:17.623Z,6.32
2023-03-19T03:53:09.582Z,6.25
2023-03-19T03:55:58.107Z,5.99
2023-03-19T03:58:48.324Z,5.25
2023-03-19T04:01:37.115Z,4.83
2023-03-19T04:04:26.621Z,4.63
2023-03-19T04:07:15.193Z,5.01
2023-03-19T04:10:11.910Z,5.27
2023-03-19T04:13:00.446Z,5.40
2023-03-19T04:15:50.964Z,5.21
2023-03-19T04:18:39.648Z,5.18
2023-03-19T04:21:29.757Z,5.09
2023-03-19T04:24:18.328Z,5.01
2023-03-19T04:27:08.670Z,4.85
2023-03-19T04:29:58.474Z,4.64
2023-03-19T04:32:47.651Z,4.30
2023-03-19T04:35:36.992Z,4.23
2023-03-19T04:38:27.733Z,4.40
2023-03-19T04:41:16.974Z,4.37
2023-03-19T04:44:19.408Z,4.26
2023-03-19T04:47:08.107Z,4.55
2023-03-19T04:50:10.682Z,4.32
2023-03-19T04:52:59.086Z,4.47
2023-03-19T04:55:47.953Z,4.38
2023-03-19T04:58:38.929Z,4.60
2023-03-19T05:01:28.769Z,4.78
2023-03-19T05:04:21.308Z,4.92
2023-03-19T05:07:10.865Z,5.13
2023-03-19T05:09:59.594Z,5.24
2023-03-19T05:12:47.939Z,5.34
2023-03-19T05:15:36.547Z,5.45
2023-03-19T05:18:29.690Z,5.54
2023-03-19T05:21:18.470Z,5.64
2023-03-19T05:24:07.523Z,5.53
2023-03-19T05:26:58.251Z,5.38
2023-03-19T05:29:58.294Z,5.51
2023-03-19T05:33:22.540Z,5.62
2023-03-19T05:36:13.772Z,5.73
2023-03-19T05:39:13.879Z,5.71
2023-03-19T05:42:04.518Z,5.82
2023-03-19T05:44:53.075Z,5.91
2023-03-19T05:47:49.226Z,5.94
2023-03-19T05:50:40.081Z,5.98
2023-03-19T05:53:43.315Z,5.89
2023-03-19T05:56:50.366Z,5.97
2023-03-19T06:00:01.759Z,6.01
2023-03-19T06:02:55.979Z,5.73
2023-03-19T06:06:22.812Z,5.35
2023-03-19T06:09:15.383Z,5.45
2023-03-19T06:12:07.079Z,5.58
2023-03-19T06:15:15.477Z,5.63
2023-03-19T06:18:07.405Z,5.57
2023-03-19T06:20:56.484Z,5.53
2023-03-19T06:23:45.077Z,5.67
2023-03-19T06:26:38.823Z,5.78
2023-03-19T06:29:33.941Z,5.93
2023-03-19T06:32:35.058Z,5.81
2023-03-19T06:35:29.119Z,5.81
2023-03-19T06:38:17.575Z,5.87
2023-03-19T06:41:06.213Z,5.95
2023-03-19T06:43:56.187Z,5.43
2023-03-19T06:46:44.561Z,5.65
2023-03-19T06:49:32.934Z,5.52
2023-03-19T06:52:21.290Z,5.72
2023-03-19T06:55:10.197Z,5.88
2023-03-19T06:57:58.546Z,5.95
2023-03-19T07:00:48.306Z,5.97
2023-03-19T07:03:36.666Z,6.05
2023-03-19T07:06:24.970Z,6.29
2023-03-19T07:09:13.995Z,6.42
2023-03-19T07:12:02.317Z,6.50
2023-03-19T07:14:51.173Z,6.57
2023-03-19T07:17:40.979Z,6.52
2023-03-19T07:20:29.877Z,6.67
2023-03-19T07:23:18.824Z,6.87
2023-03-19T07:26:07.202Z,7.03
2023-03-19T07:28:55.630Z,7.12
2023-03-19T07:31:44.054Z,7.07
2023-03-19T07:34:33.835Z,7.20
2023-03-19T07:37:22.662Z,7.31
2023-03-19T07:40:12.652Z,7.47
2023-03-19T07:43:00.984Z,7.61
2023-03-19T07:45:49.435Z,7.72
2023-03-19T07:48:38.182Z,7.81
2023-03-19T07:51:27.972Z,7.85
2023-03-19T07:54:16.452Z,7.84
2023-03-19T07:57:04.927Z,7.97
2023-03-19T07:59:53.290Z,8.13
2023-03-19T08:02:42.847Z,8.28
2023-03-19T08:05:31.324Z,8.40
2023-03-19T08:08:21.122Z,8.54
2023-03-19T08:11:09.652Z,8.54
2023-03-19T08:13:58.081Z,8.67
2023-03-19T08:16:46.426Z,8.71
2023-03-19T08:19:34.741Z,8.80
2023-03-19T08:22:23.374Z,8.75
2023-03-19T08:25:13.633Z,8.66
2023-03-19T08:28:02.320Z,8.80
2023-03-19T08:30:50.639Z,8.90
2023-03-19T08:33:39.549Z,8.99
2023-03-19T08:36:28.171Z,9.09
2023-03-19T08:39:16.624Z,9.12
2023-03-19T08:42:06.622Z,9.23
2023-03-19T08:44:54.921Z,9.35
2023-03-19T08:47:43.941Z,9.43
2023-03-19T08:50:33.741Z,9.54
2023-03-19T08:53:22.252Z,9.68
2023-03-19T08:56:10.741Z,9.77
2023-03-19T08:59:00.453Z,9.90
2023-03-19T09:01:52.403Z,10.03
2023-03-19T09:04:41.984Z,10.13
2023-03-19T09:07:30.610Z,10.26
2023-03-19T09:10:19.245Z,10.40
2023-03-19T09:13:07.574Z,10.48
2023-03-19T09:15:57.371Z,10.63
2023-03-19T09:18:45.799Z,10.84
2023-03-19T09:21:34.178Z,10.93
2023-03-19T09:24:22.689Z,11.09
2023-03-19T09:27:11.101Z,11.08
2023-03-19T09:29:59.443Z,11.25
2023-03-19T09:32:49.253Z,11.33
2023-03-19T09:35:39.758Z,11.46
2023-03-19T09:38:28.489Z,11.57
2023-03-19T09:41:23.039Z,11.67
2023-03-19T09:44:14.315Z,11.75
2023-03-19T09:47:11.614Z,11.83
2023-03-19T09:50:04.365Z,11.88
2023-03-19T09:52:59.242Z,11.81
2023-03-19T09:55:50.012Z,11.82
2023-03-19T09:58:38.520Z,11.86
2023-03-19T10:01:28.821Z,11.88
2023-03-19T10:04:42.621Z,11.92
2023-03-19T10:07:43.151Z,12.11
2023-03-19T10:10:48.496Z,12.34
2023-03-19T10:13:46.385Z,12.37
2023-03-19T10:16:36.020Z,12.27
2023-03-19T10:19:28.220Z,12.36
2023-03-19T10:22:19.436Z,12.50
2023-03-19T10:25:12.197Z,12.48
2023-03-19T10:28:03.309Z,12.48
2023-03-19T10:30:58.288Z,12.57
2023-03-19T10:33:53.407Z,12.72
2023-03-19T10:36:41.798Z,12.79
2023-03-19T10:39:32.221Z,12.86
2023-03-19T10:42:33.375Z,12.91
2023-03-19T10:45:26.772Z,12.98
2023-03-19T10:48:17.958Z,12.95
2023-03-19T10:51:06.834Z,13.04
2023-03-19T10:53:56.923Z,13.18
2023-03-19T10:56:47.472Z,13.06
2023-03-19T10:59:38.864Z,13.03
2023-03-19T11:02:31.148Z,12.97
2023-03-19T11:05:29.864Z,13.04
2023-03-19T11:08:34.895Z,13.21
2023-03-19T11:11:26.382Z,13.26
2023-03-19T11:14:17.106Z,13.48
2023-03-19T11:17:16.073Z,13.34
2023-03-19T11:20:16.895Z,13.38
2023-03-19T11:23:12.108Z,13.44
2023-03-19T11:26:02.941Z,13.48
2023-03-19T11:28:52.256Z,13.51
2023-03-19T11:31:44.485Z,13.57
2023-03-19T11:34:37.459Z,13.72
2023-03-19T11:37:31.687Z,13.78
2023-03-19T11:40:25.240Z,13.79
2023-03-19T11:43:39.059Z,13.93
2023-03-19T11:46:46.243Z,13.99
2023-03-19T11:50:02.846Z,14.16
2023-03-19T11:53:15.824Z,14.28
2023-03-19T11:56:11.505Z,14.19
2023-03-19T11:59:18.176Z,14.35
2023-03-19T12:02:34.169Z,14.42
2023-03-19T12:05:26.855Z,14.06
2023-03-19T12:08:24.396Z,13.68
2023-03-19T12:11:19.142Z,13.48
2023-03-19T12:14:18.508Z,13.45
2023-03-19T12:17:19.174Z,13.18
2023-03-19T12:20:40.528Z,13.21
2023-03-19T12:23:37.627Z,13.28
2023-03-19T12:26:34.183Z,13.40
2023-03-19T12:29:25.834Z,13.62
2023-03-19T12:32:30.460Z,13.65
2023-03-19T12:35:20.944Z,13.55
2023-03-19T12:38:15.002Z,13.49
2023-03-19T12:41:07.750Z,13.73
2023-03-19T12:43:58.676Z,13.45
2023-03-19T12:46:51.163Z,13.51
2023-03-19T12:49:43.300Z,13.55
2023-03-19T12:52:36.805Z,13.82
2023-03-19T12:55:36.737Z,13.49
2023-03-19T12:58:31.312Z,13.50
2023-03-19T13:01:24.797Z,13.68
2023-03-19T13:04:15.527Z,13.90
2023-03-19T13:07:08.210Z,14.18
2023-03-19T13:10:00.672Z,14.38
2023-03-19T13:12:51.946Z,14.43
2023-03-19T13:15:42.468Z,14.42
2023-03-19T13:18:38.269Z,14.38
2023-03-19T13:21:30.273Z,14.29
2023-03-19T13:24:23.006Z,14.20
2023-03-19T13:27:16.276Z,14.21
2023-03-19T13:30:20.652Z,14.20
2023-03-19T13:33:15.584Z,14.39
2023-03-19T13:36:06.466Z,14.27
2023-03-19T13:38:55.208Z,14.07
2023-03-19T13:41:54.889Z,13.92
2023-03-19T13:44:50.176Z,13.97
2023-03-19T13:47:43.366Z,14.15
2023-03-19T13:50:34.270Z,14.10
2023-03-19T13:53:34.900Z,14.01
2023-03-19T13:56:29.902Z,13.89
2023-03-19T13:59:27.076Z,13.98
2023-03-19T14:02:50.722Z,14.01
2023-03-19T14:05:39.561Z,13.96
2023-03-19T14:08:31.547Z,13.98
2023-03-19T14:11:24.285Z,14.00
2023-03-19T14:14:16.185Z,13.89
2023-03-19T14:17:05.761Z,13.79
2023-03-19T14:19:55.805Z,13.92
2023-03-19T14:22:56.565Z,14.05
2023-03-19T14:25:58.016Z,14.15
2023-03-19T14:28:58.892Z,14.16
2023-03-19T14:31:50.201Z,14.03
2023-03-19T14:34:40.394Z,13.92
2023-03-19T14:37:36.374Z,13.96
2023-03-19T14:40:27.587Z,14.06
2023-03-19T14:43:19.271Z,14.01
2023-03-19T14:46:10.254Z,14.15
2023-03-19T14:49:29.197Z,14.09
2023-03-19T14:52:19.180Z,14.15
2023-03-19T14:55:12.622Z,14.14
2023-03-19T14:58:02.129Z,14.27
2023-03-19T15:00:52.051Z,14.38
2023-03-19T15:03:40.463Z,14.49
2023-03-19T15:06:32.794Z,14.68
2023-03-19T15:09:23.496Z,14.84
2023-03-19T15:12:31.290Z,14.90
2023-03-19T15:15:27.612Z,15.08
2023-03-19T15:18:16.749Z,15.20
2023-03-19T15:21:05.999Z,15.61
2023-03-19T15:23:54.393Z,15.62
2023-03-19T15:26:43.053Z,15.81
2023-03-19T15:29:33.674Z,15.69
2023-03-19T15:32:52.178Z,15.92
2023-03-19T15:35:44.214Z,16.27
2023-03-19T15:38:36.595Z,16.60
2023-03-19T15:41:26.613Z,16.86
2023-03-19T15:44:18.601Z,17.12
2023-03-19T15:47:10.449Z,17.02
2023-03-19T15:50:00.755Z,16.97
2023-03-19T15:52:52.567Z,16.97
2023-03-19T15:55:41.063Z,16.79
2023-03-19T15:58:31.388Z,16.54
2023-03-19T16:01:20.353Z,16.41
2023-03-19T16:04:16.284Z,16.51
2023-03-19T16:07:05.426Z,16.51
2023-03-19T16:09:53.848Z,16.48
2023-03-19T16:12:42.504Z,16.41
2023-03-19T16:15:35.398Z,15.99
2023-03-19T16:18:25.705Z,15.71
2023-03-19T16:21:18.709Z,15.40
2023-03-19T16:24:15.299Z,15.47
2023-03-19T16:27:05.204Z,15.53
2023-03-19T16:29:58.586Z,15.45
2023-03-19T16:32:47.069Z,15.40
2023-03-19T16:35:36.719Z,15.41
2023-03-19T16:38:28.369Z,15.19
2023-03-19T16:41:19.434Z,15.20
2023-03-19T16:44:17.367Z,15.13
2023-03-19T16:47:10.150Z,15.12
2023-03-19T16:49:58.535Z,15.07
2023-03-19T16:52:48.056Z,15.01
2023-03-19T16:55:38.321Z,14.94
2023-03-19T16:58:29.608Z,14.85
2023-03-19T17:01:20.034Z,14.76
2023-03-19T17:04:12.783Z,14.72
2023-03-19T17:07:01.201Z,14.68
2023-03-19T17:09:49.954Z,14.55
2023-03-19T17:12:39.738Z,14.46
2023-03-19T17:15:30.268Z,14.40
2023-03-19T17:18:21.481Z,14.30
2023-03-19T17:21:13.158Z,14.23
2023-03-19T17:24:05.428Z,14.19
2023-03-19T17:26:54.711Z,14.15
2023-03-19T17:29:44.415Z,14.11
2023-03-19T17:32:32.940Z,14.05
2023-03-19T17:35:22.876Z,13.98
2023-03-19T17:38:12.962Z,13.92
2023-03-19T17:41:01.650Z,13.81
2023-03-19T17:43:50.043Z,13.74
2023-03-19T17:46:41.800Z,13.68
2023-03-19T17:49:32.419Z,13.62
2023-03-19T17:52:21.286Z,13.56
2023-03-19T17:55:16.607Z,13.50
2023-03-19T17:58:05.148Z,13.43
2023-03-19T18:00:53.732Z,13.35
2023-03-19T18:03:43.864Z,13.23
2023-03-19T18:06:34.758Z,13.13
2023-03-19T18:09:24.845Z,13.12
2023-03-19T18:12:13.179Z,13.05
2023-03-19T18:15:01.597Z,12.99
2023-03-19T18:17:52.652Z,12.94
2023-03-19T18:20:42.514Z,12.90
2023-03-19T18:23:31.328Z,12.84
2023-03-19T18:26:19.771Z,12.73
2023-03-19T18:29:09.110Z,12.65
2023-03-19T18:32:03.009Z,12.61
2023-03-19T18:34:51.450Z,12.52
2023-03-19T18:37:41.181Z,12.50
2023-03-19T18:40:31.979Z,12.44
2023-03-19T18:43:20.915Z,12.40
2023-03-19T18:46:11.827Z,12.37
2023-03-19T18:49:01.843Z,12.32
2023-03-19T18:52:01.743Z,12.27
2023-03-19T18:54:52.596Z,12.23
2023-03-19T18:57:52.328Z,12.18
2023-03-19T19:00:41.377Z,12.14
2023-03-19T19:03:31.684Z,12.09
2023-03-19T19:06:24.800Z,11.98
2023-03-19T19:09:16.921Z,11.89
2023-03-19T19:12:09.475Z,11.85
2023-03-19T19:14:58.762Z,11.82
2023-03-19T19:17:47.945Z,11.75
2023-03-19T19:20:36.417Z,11.55
2023-03-19T19:23:27.252Z,11.37
2023-03-19T19:26:22.839Z,11.33
2023-03-19T19:29:18.732Z,11.36
2023-03-19T19:32:10.690Z,11.08
2023-03-19T19:34:59.049Z,10.71
2023-03-19T19:37:47.410Z,10.49
2023-03-19T19:40:36.078Z,10.23
2023-03-19T19:43:25.915Z,10.29
2023-03-19T19:46:17.527Z,10.39
2023-03-19T19:49:06.560Z,10.56
2023-03-19T19:51:54.879Z,10.66
2023-03-19T19:54:43.251Z,10.70
2023-03-19T19:57:31.574Z,10.61
2023-03-19T20:00:22.508Z,10.44
2023-03-19T20:03:20.978Z,10.46
2023-03-19T20:06:09.577Z,10.35
2023-03-19T20:08:57.907Z,10.03
2023-03-19T20:11:47.842Z,9.59
2023-03-19T20:14:36.842Z,9.41
2023-03-19T20:17:25.310Z,9.31
2023-03-19T20:20:25.691Z,9.49
2023-03-19T20:23:15.232Z,9.62
2023-03-19T20:26:03.707Z,9.80
2023-03-19T20:28:52.184Z,9.93
2023-03-19T20:31:40.490Z,10.06
2023-03-19T20:34:38.690Z,10.17
2023-03-19T20:37:29.270Z,10.18
2023-03-19T20:40:18.299Z,10.26
2023-03-19T20:43:07.713Z,10.20
2023-03-19T20:45:56.674Z,10.18
2023-03-19T20:48:45.057Z,10.23
2023-03-19T20:51:33.688Z,10.26
2023-03-19T20:54:23.748Z,10.30
2023-03-19T20:57:14.581Z,10.33
2023-03-19T21:00:04.328Z,10.28
2023-03-19T21:02:54.072Z,10.32
2023-03-19T21:05:42.608Z,10.19
2023-03-19T21:08:33.515Z,10.19
2023-03-19T21:11:25.004Z,10.24
2023-03-19T21:14:15.948Z,10.10
2023-03-19T21:17:04.811Z,10.10
2023-03-19T21:19:53.139Z,10.09
2023-03-19T21:22:41.917Z,10.07
2023-03-19T21:25:31.539Z,10.05
2023-03-19T21:28:26.496Z,10.05
2023-03-19T21:31:18.122Z,10.05
2023-03-19T21:34:07.008Z,9.98
2023-03-19T21:36:55.497Z,9.82
2023-03-19T21:39:43.858Z,9.73
2023-03-19T21:42:33.143Z,9.70
2023-03-19T21:45:27.508Z,9.84
2023-03-19T21:48:24.531Z,9.91
2023-03-19T21:51:14.441Z,10.06
2023-03-19T21:54:02.880Z,9.74
2023-03-19T21:56:51.580Z,9.83
2023-03-19T21:59:40.287Z,9.69
2023-03-19T22:02:43.645Z,9.69
2023-03-19T22:05:32.034Z,9.72
2023-03-19T22:08:21.607Z,9.89
2023-03-19T22:11:15.130Z,10.03
2023-03-19T22:14:06.545Z,9.93
2023-03-19T22:16:56.648Z,9.98
2023-03-19T22:19:46.606Z,9.90
2023-03-19T22:22:35.025Z,9.86
2023-03-19T22:25:23.829Z,9.97
2023-03-19T22:28:17.789Z,9.47
2023-03-19T22:31:06.888Z,9.55
2023-03-19T22:33:55.322Z,9.70
2023-03-19T22:36:45.317Z,9.70
2023-03-19T22:39:33.732Z,9.71
2023-03-19T22:42:22.409Z,9.32
2023-03-19T22:45:16.495Z,9.29
2023-03-19T22:48:05.395Z,9.32
2023-03-19T22:50:53.963Z,9.37
2023-03-19T22:53:43.720Z,9.45
2023-03-19T22:56:32.222Z,9.43
2023-03-19T22:59:20.824Z,9.59
2023-03-19T23:02:10.690Z,9.52
2023-03-19T23:04:59.038Z,9.55
2023-03-19T23:07:47.386Z,9.59
2023-03-19T23:10:37.331Z,9.56
2023-03-19T23:13:26.176Z,9.59
2023-03-19T23:16:20.886Z,9.46
2023-03-19T23:19:11.987Z,9.36
2023-03-19T23:22:02.523Z,9.48
2023-03-19T23:24:50.986Z,9.51
2023-03-19T23:27:40.686Z,9.51
2023-03-19T23:30:31.555Z,9.45
2023-03-19T23:33:21.027Z,9.39
2023-03-19T23:36:10.192Z,9.53
2023-03-19T23:38:59.343Z,9.63
2023-03-19T23:41:49.374Z,9.69
2023-03-19T23:44:39.242Z,9.73
2023-03-19T23:47:28.077Z,9.77
2023-03-19T23:50:16.769Z,9.74
2023-03-19T23:53:05.180Z,9.72
2023-03-19T23:55:56.943Z,9.59
2023-03-19T23:58:45.928Z,9.60
